Bookmark and Share
Track history (hours):
 

Drifting buoy 46563

Last reported at 2014-Apr-23 06:00 UTC. Time now 2014-Apr-23 09:34 UTC.
Position N 28°07' W 121°21'.

Water temperature 18.6 ° C

NotesDate/timePositionNaut miles runAvg speedWind from/ knotsBaromVisibWave heightAir tempDewpointWater temp
2014-Apr-23 06:00N 28°07' W 121°21'0 0.4 18.6
2014-Apr-23 05:00N 28°07' W 121°21'0 0.2 18.6
2014-Apr-23 04:00N 28°07' W 121°22'0 0.3 18.6
2014-Apr-23 03:00N 28°08' W 121°22'1 0.3 18.6
2014-Apr-23 00:00N 28°09' W 121°22'1 0.8 18.7
2014-Apr-22 23:00N 28°09' W 121°21'2 0.4 18.7
2014-Apr-22 19:00N 28°11' W 121°22'0 0.0 18.6
2014-Apr-22 18:00N 28°11' W 121°22'1 1.0 18.5
2014-Apr-22 17:00N 28°12' W 121°22'0 0.0 18.5
2014-Apr-22 15:00N 28°12' W 121°22'0 0.3 18.4
2014-Apr-22 14:00N 28°12' W 121°22'0 0.2 18.4
2014-Apr-22 13:00N 28°12' W 121°22'0 0.4 18.3
2014-Apr-22 12:00N 28°13' W 121°22'0 0.3 18.3
2014-Apr-22 11:00N 28°13' W 121°22'1 1.3 18.2
2014-Apr-22 10:00N 28°14' W 121°23'0 0.0 18.2
2014-Apr-22 05:00N 28°14' W 121°23'1 0.6 18.1
2014-Apr-22 04:00N 28°14' W 121°24'0 0.1 18.2
2014-Apr-22 03:00N 28°14' W 121°24'0 0.2 18.2
2014-Apr-22 01:00N 28°14' W 121°24'1 0.3 18.3
2014-Apr-21 23:00N 28°15' W 121°24'2 1.6 18.4
2014-Apr-21 22:00N 28°16' W 121°26'0 0.0 18.3
2014-Apr-21 21:00N 28°16' W 121°26'0 0.1 18.3
2014-Apr-21 18:00N 28°16' W 121°26'1 1.3 18.1
2014-Apr-21 17:00N 28°16' W 121°27'0 0.0 18.0
2014-Apr-21 15:00N 28°16' W 121°27'1 0.5 18.0
2014-Apr-21 13:00N 28°17' W 121°28'0 0.0 18.0
2014-Apr-21 12:00N 28°17' W 121°28'2 0.6 18.0
2014-Apr-21 09:00N 28°18' W 121°30'0 0.0 18.0
2014-Apr-21 06:00N 28°18' W 121°30'1 0.8 18.0
2014-Apr-21 05:00N 28°18' W 121°31'1 1.0 18.0
2014-Apr-21 04:00N 28°19' W 121°32'0 0.0 18.0
2014-Apr-21 02:00N 28°19' W 121°32'1 1.2 18.0
2014-Apr-21 01:00N 28°19' W 121°33'0 0.2 18.0
2014-Apr-20 23:00N 28°19' W 121°33'1 0.7 18.0
2014-Apr-20 22:00N 28°19' W 121°33'1 0.7 18.0
2014-Apr-20 21:00N 28°20' W 121°34'0 0.1 17.9
2014-Apr-20 20:00N 28°20' W 121°34'1 0.4 17.9
2014-Apr-20 18:00N 28°20' W 121°34'1 0.7 17.8
2014-Apr-20 17:00N 28°21' W 121°35'2 1.8 17.8
2014-Apr-20 16:00N 28°22' W 121°36'0 0.0 17.7
2014-Apr-20 14:00N 28°22' W 121°36'1 0.6 17.7
2014-Apr-20 12:00N 28°22' W 121°38'0 0.0 17.7
2014-Apr-20 11:00N 28°22' W 121°38'2 1.2 17.7
2014-Apr-20 09:00N 28°23' W 121°40'2 0.4 17.7
2014-Apr-20 04:00N 28°24' W 121°42'0 0.2 17.7
2014-Apr-20 03:00N 28°24' W 121°42'0 0.0 17.7
2014-Apr-20 02:00N 28°24' W 121°42'1 0.9 17.7
2014-Apr-20 01:00N 28°25' W 121°42'1 0.3 17.7
2014-Apr-19 22:00N 28°25' W 121°43'2 0.5 17.6
2014-Apr-19 19:00N 28°26' W 121°45'0 0.3 17.5
2014-Apr-19 18:00N 28°26' W 121°45'0 0.0 17.4
2014-Apr-19 17:00N 28°26' W 121°45'2 1.1 17.4
2014-Apr-19 15:00N 28°27' W 121°47'1 0.8 17.3
2014-Apr-19 14:00N 28°27' W 121°48'1 0.5 17.3
2014-Apr-19 12:00N 28°28' W 121°48'3 0.9 17.2
2014-Apr-19 09:00N 28°29' W 121°51'0 0.0 17.2
2014-Apr-19 08:00N 28°29' W 121°51'1 0.6 17.2
2014-Apr-19 06:00N 28°29' W 121°52'0 0.2 17.1
2014-Apr-19 05:00N 28°29' W 121°52'1 1.2 17.1
2014-Apr-19 04:00N 28°30' W 121°54'1 1.0 17.1
2014-Apr-19 03:00N 28°30' W 121°55'1 0.4 17.1
2014-Apr-19 01:00N 28°31' W 121°54'1 0.5 17.1
2014-Apr-18 23:00N 28°31' W 121°55'1 1.2 17.1
2014-Apr-18 22:00N 28°31' W 121°56'0 0.1 17.1
2014-Apr-18 21:00N 28°31' W 121°56'0 0.2 17.1
2014-Apr-18 19:00N 28°31' W 121°57'1 1.2 17.0
2014-Apr-18 18:00N 28°31' W 121°58'0 0.2 17.0
2014-Apr-18 16:00N 28°32' W 121°58'1 1.5 17.0
2014-Apr-18 15:00N 28°33' W 121°59'1 0.6 17.0
2014-Apr-18 14:00N 28°33' W 121°59'0 0.0 17.0
2014-Apr-18 13:00N 28°33' W 121°59'0 0.3 17.0
2014-Apr-18 12:00N 28°33' W 121°58'3 2.6 17.0
2014-Apr-18 11:00N 28°34' W 122°01'0 0.0 17.0
2014-Apr-18 09:00N 28°34' W 122°01'2 0.8 17.0
2014-Apr-18 06:00N 28°35' W 122°03'1 0.5 17.1
2014-Apr-18 05:00N 28°35' W 122°04'0 0.2 17.1
2014-Apr-18 04:00N 28°36' W 122°04'1 1.0 17.1
2014-Apr-18 03:00N 28°36' W 122°05'0 0.0 17.1
2014-Apr-18 02:00N 28°36' W 122°05'1 0.5 17.1
2014-Apr-18 00:00N 28°36' W 122°06'1 0.5 17.2
2014-Apr-17 22:00N 28°37' W 122°07'1 0.6 17.2
2014-Apr-17 21:00N 28°37' W 122°08'0 0.0 17.1
2014-Apr-17 20:00N 28°37' W 122°08'1 0.6 17.1
2014-Apr-17 18:00N 28°37' W 122°09'2 2.0 17.1
2014-Apr-17 17:00N 28°38' W 122°11'0 0.0 17.1
2014-Apr-17 16:00N 28°38' W 122°11'0 0.1 17.1
2014-Apr-17 14:00N 28°38' W 122°11'0 0.3 17.1
2014-Apr-17 13:00N 28°38' W 122°11'1 1.0 17.1
2014-Apr-17 12:00N 28°39' W 122°12'1 0.6 17.1
2014-Apr-17 11:00N 28°39' W 122°12'0 0.2 17.1
2014-Apr-17 09:00N 28°39' W 122°13'2 0.5 17.1
2014-Apr-17 06:00N 28°40' W 122°14'1 0.5 17.1
2014-Apr-17 05:00N 28°41' W 122°15'0 0.4 17.1
2014-Apr-17 04:00N 28°41' W 122°15'0 0.5 17.1
2014-Apr-17 03:00N 28°41' W 122°16'0 0.0 17.1
2014-Apr-17 02:00N 28°41' W 122°16'1 1.3 17.1
2014-Apr-17 01:00N 28°41' W 122°17'0 0.0 17.2
2014-Apr-17 00:00N 28°41' W 122°17'1 0.6 17.2
2014-Apr-16 23:00N 28°42' W 122°18'1 0.5 17.2
2014-Apr-16 22:00N 28°42' W 122°18'0 0.0 17.2
2014-Apr-16 21:00N 28°42' W 122°18'1 0.5 17.1
2014-Apr-16 19:00N 28°43' W 122°19'0 0.5 17.1
2014-Apr-16 18:00N 28°43' W 122°19'0 0.2 17.1
2014-Apr-16 17:00N 28°43' W 122°20'0 0.0 17.1
2014-Apr-16 16:00N 28°43' W 122°20'2 0.7 17.1
2014-Apr-16 13:00N 28°44' W 122°22'0 0.2 17.1
2014-Apr-16 12:00N 28°44' W 122°22'1 0.9 17.1
2014-Apr-16 11:00N 28°45' W 122°23'0 0.5 17.1
2014-Apr-16 10:00N 28°44' W 122°22'0 0.0 17.1
2014-Apr-16 09:00N 28°44' W 122°22'2 0.5 17.1
2014-Apr-16 06:00N 28°46' W 122°23'0 0.1 17.2
2014-Apr-16 04:00N 28°46' W 122°23'0 0.4 17.2
2014-Apr-16 03:00N 28°46' W 122°24'1 1.1 17.2
2014-Apr-16 02:00N 28°46' W 122°25'0 0.2 17.2
2014-Apr-16 00:00N 28°47' W 122°25'1 1.0 17.2
2014-Apr-15 23:00N 28°47' W 122°26'2 0.9 17.3
2014-Apr-15 21:00N 28°48' W 122°28'0 0.1 17.3
2014-Apr-15 19:00N 28°48' W 122°28'0 0.1 17.2
2014-Apr-15 18:00N 28°48' W 122°28'1 0.4 17.2
2014-Apr-15 16:00N 28°48' W 122°29'0 0.0 17.2
2014-Apr-15 15:00N 28°48' W 122°29'0 0.1 17.2
2014-Apr-15 14:00N 28°48' W 122°29'0 0.1 17.2
2014-Apr-15 13:00N 28°48' W 122°29'2 0.8 17.2
2014-Apr-15 11:00N 28°50' W 122°30'2 2.0 17.2
2014-Apr-15 10:00N 28°51' W 122°31'0 0.0 17.2
2014-Apr-15 05:00N 28°51' W 122°31'1 0.4 17.3
2014-Apr-15 03:00N 28°52' W 122°31'1 0.9 17.3
2014-Apr-15 02:00N 28°53' W 122°32'1 0.7 17.3
2014-Apr-15 01:00N 28°53' W 122°32'1 0.6 17.4
2014-Apr-15 00:00N 28°53' W 122°33'2 1.9 17.4
2014-Apr-14 23:00N 28°54' W 122°35'0 0.0 17.4
2014-Apr-14 21:00N 28°54' W 122°35'0 0.2 17.4
2014-Apr-14 20:00N 28°54' W 122°35'0 0.0 17.3
2014-Apr-14 19:00N 28°54' W 122°35'1 0.7 17.3
2014-Apr-14 18:00N 28°54' W 122°36'1 0.2 17.3
2014-Apr-14 14:00N 28°54' W 122°37'0 0.3 17.4
2014-Apr-14 13:00N 28°54' W 122°37'0 0.0 17.4
2014-Apr-14 11:00N 28°54' W 122°37'0 0.3 17.5
2014-Apr-14 10:00N 28°55' W 122°37'2 0.8 17.5
2014-Apr-14 08:00N 28°56' W 122°37'1 0.5 17.6
2014-Apr-14 05:00N 28°57' W 122°38'0 0.5 17.6
2014-Apr-14 04:00N 28°58' W 122°38'2 0.8 17.7
2014-Apr-14 02:00N 28°59' W 122°39'0 0.0 17.7
2014-Apr-14 01:00N 28°59' W 122°39'1 0.8 17.7
2014-Apr-14 00:00N 28°59' W 122°40'1 0.3 17.8
2014-Apr-13 22:00N 28°59' W 122°39'1 0.5 17.7
2014-Apr-13 20:00N 28°60' W 122°40'1 0.2 17.7
2014-Apr-13 13:00N 29°01' W 122°41'0 0.0 17.6
2014-Apr-13 12:00N 29°01' W 122°41'1 0.9 17.6
2014-Apr-13 11:00N 29°02' W 122°40'0 0.1 17.7
2014-Apr-13 10:00N 29°02' W 122°40'1 1.1 17.7
2014-Apr-13 09:00N 29°03' W 122°40'1 1.1 17.7
2014-Apr-13 08:00N 29°04' W 122°40'   17.7

Dump ship's entire track history

sailing weather and tide predictions

Buoy 46563